sensor_id;sensor_type;location;lat;lon;timestamp;pressure;altitude;pressure_sealevel;temperature;humidity
77118;BME280;66072;50.238;19.228;2023-04-06T00:01:50;98854.71;;;-4.19;69.96
77118;BME280;66072;50.238;19.228;2023-04-06T00:04:18;98856.20;;;-4.21;69.92
77118;BME280;66072;50.238;19.228;2023-04-06T00:06:46;98853.52;;;-4.21;70.15
77118;BME280;66072;50.238;19.228;2023-04-06T00:09:13;98860.33;;;-4.23;70.10
77118;BME280;66072;50.238;19.228;2023-04-06T00:11:41;98858.46;;;-4.25;70.32
77118;BME280;66072;50.238;19.228;2023-04-06T00:14:08;98855.77;;;-4.26;70.53
77118;BME280;66072;50.238;19.228;2023-04-06T00:16:36;98854.96;;;-4.24;70.85
77118;BME280;66072;50.238;19.228;2023-04-06T00:19:03;98855.00;;;-4.23;70.83
77118;BME280;66072;50.238;19.228;2023-04-06T00:21:31;98854.83;;;-4.23;70.89
77118;BME280;66072;50.238;19.228;2023-04-06T00:23:59;98855.65;;;-4.23;71.06
77118;BME280;66072;50.238;19.228;2023-04-06T00:26:26;98850.64;;;-4.23;71.23
77118;BME280;66072;50.238;19.228;2023-04-06T00:28:54;98850.16;;;-4.23;71.25
77118;BME280;66072;50.238;19.228;2023-04-06T00:31:21;98848.80;;;-4.23;71.32
77118;BME280;66072;50.238;19.228;2023-04-06T00:33:49;98844.59;;;-4.25;71.39
77118;BME280;66072;50.238;19.228;2023-04-06T00:36:17;98846.59;;;-4.25;71.79
77118;BME280;66072;50.238;19.228;2023-04-06T00:38:44;98844.42;;;-4.25;71.69
77118;BME280;66072;50.238;19.228;2023-04-06T00:41:12;98844.56;;;-4.27;71.57
77118;BME280;66072;50.238;19.228;2023-04-06T00:43:40;98839.98;;;-4.30;71.69
77118;BME280;66072;50.238;19.228;2023-04-06T00:46:07;98838.91;;;-4.35;71.68
77118;BME280;66072;50.238;19.228;2023-04-06T00:48:35;98837.25;;;-4.43;71.48
77118;BME280;66072;50.238;19.228;2023-04-06T00:51:03;98834.26;;;-4.51;71.72
77118;BME280;66072;50.238;19.228;2023-04-06T00:53:30;98832.58;;;-4.60;71.73
77118;BME280;66072;50.238;19.228;2023-04-06T00:55:58;98835.74;;;-4.69;72.02
77118;BME280;66072;50.238;19.228;2023-04-06T00:58:26;98835.59;;;-4.76;72.20
77118;BME280;66072;50.238;19.228;2023-04-06T01:00:53;98833.11;;;-4.83;72.32
77118;BME280;66072;50.238;19.228;2023-04-06T01:03:22;98833.52;;;-4.89;72.79
77118;BME280;66072;50.238;19.228;2023-04-06T01:05:51;98834.08;;;-4.93;72.84
77118;BME280;66072;50.238;19.228;2023-04-06T01:08:18;98838.83;;;-4.98;72.93
77118;BME280;66072;50.238;19.228;2023-04-06T01:10:46;98837.20;;;-5.03;73.05
77118;BME280;66072;50.238;19.228;2023-04-06T01:13:14;98837.10;;;-5.08;73.19
77118;BME280;66072;50.238;19.228;2023-04-06T01:15:41;98830.67;;;-5.11;73.67
77118;BME280;66072;50.238;19.228;2023-04-06T01:18:09;98829.35;;;-5.11;74.25
77118;BME280;66072;50.238;19.228;2023-04-06T01:20:37;98828.86;;;-5.10;74.57
77118;BME280;66072;50.238;19.228;2023-04-06T01:23:04;98827.66;;;-5.12;74.30
77118;BME280;66072;50.238;19.228;2023-04-06T01:25:32;98830.73;;;-5.17;74.51
77118;BME280;66072;50.238;19.228;2023-04-06T01:28:00;98832.67;;;-5.20;74.71
77118;BME280;66072;50.238;19.228;2023-04-06T01:30:27;98835.71;;;-5.25;74.61
77118;BME280;66072;50.238;19.228;2023-04-06T01:32:55;98838.96;;;-5.29;75.05
77118;BME280;66072;50.238;19.228;2023-04-06T01:35:23;98842.42;;;-5.31;75.29
77118;BME280;66072;50.238;19.228;2023-04-06T01:37:50;98837.02;;;-5.33;75.22
77118;BME280;66072;50.238;19.228;2023-04-06T01:40:18;98832.94;;;-5.37;75.25
77118;BME280;66072;50.238;19.228;2023-04-06T01:42:46;98831.83;;;-5.42;75.22
77118;BME280;66072;50.238;19.228;2023-04-06T01:45:13;98830.25;;;-5.46;75.33
77118;BME280;66072;50.238;19.228;2023-04-06T01:47:41;98825.00;;;-5.50;75.60
77118;BME280;66072;50.238;19.228;2023-04-06T01:50:09;98826.09;;;-5.53;75.77
77118;BME280;66072;50.238;19.228;2023-04-06T01:52:37;98825.35;;;-5.56;75.78
77118;BME280;66072;50.238;19.228;2023-04-06T01:55:05;98824.11;;;-5.59;75.92
77118;BME280;66072;50.238;19.228;2023-04-06T01:57:32;98823.71;;;-5.62;76.05
77118;BME280;66072;50.238;19.228;2023-04-06T02:00:00;98817.30;;;-5.65;76.32
77118;BME280;66072;50.238;19.228;2023-04-06T02:02:28;98819.77;;;-5.67;76.64
77118;BME280;66072;50.238;19.228;2023-04-06T02:04:56;98823.56;;;-5.69;76.64
77118;BME280;66072;50.238;19.228;2023-04-06T02:07:23;98819.35;;;-5.71;76.60
77118;BME280;66072;50.238;19.228;2023-04-06T02:09:54;98819.46;;;-5.73;76.76
77118;BME280;66072;50.238;19.228;2023-04-06T02:12:21;98818.91;;;-5.75;76.73
77118;BME280;66072;50.238;19.228;2023-04-06T02:14:49;98816.83;;;-5.78;76.95
77118;BME280;66072;50.238;19.228;2023-04-06T02:17:17;98812.48;;;-5.79;77.19
77118;BME280;66072;50.238;19.228;2023-04-06T02:19:44;98808.49;;;-5.79;77.48
77118;BME280;66072;50.238;19.228;2023-04-06T02:22:12;98810.98;;;-5.79;77.30
77118;BME280;66072;50.238;19.228;2023-04-06T02:24:40;98811.48;;;-5.79;77.21
77118;BME280;66072;50.238;19.228;2023-04-06T02:27:07;98811.44;;;-5.81;77.36
77118;BME280;66072;50.238;19.228;2023-04-06T02:29:35;98810.67;;;-5.85;77.31
77118;BME280;66072;50.238;19.228;2023-04-06T02:32:02;98810.27;;;-5.88;77.38
77118;BME280;66072;50.238;19.228;2023-04-06T02:34:30;98808.55;;;-5.91;77.85
77118;BME280;66072;50.238;19.228;2023-04-06T02:36:58;98807.88;;;-5.91;78.02
77118;BME280;66072;50.238;19.228;2023-04-06T02:39:26;98812.67;;;-5.93;78.00
77118;BME280;66072;50.238;19.228;2023-04-06T02:41:53;98813.80;;;-5.95;78.07
77118;BME280;66072;50.238;19.228;2023-04-06T02:44:21;98814.40;;;-5.97;78.15
77118;BME280;66072;50.238;19.228;2023-04-06T02:46:48;98815.02;;;-6.00;78.01
77118;BME280;66072;50.238;19.228;2023-04-06T02:49:16;98812.72;;;-6.05;77.96
77118;BME280;66072;50.238;19.228;2023-04-06T02:51:43;98813.46;;;-6.08;78.10
77118;BME280;66072;50.238;19.228;2023-04-06T02:54:11;98815.17;;;-6.13;78.33
77118;BME280;66072;50.238;19.228;2023-04-06T02:56:39;98815.42;;;-6.16;78.45
77118;BME280;66072;50.238;19.228;2023-04-06T02:59:06;98816.34;;;-6.19;78.42
77118;BME280;66072;50.238;19.228;2023-04-06T03:01:34;98819.17;;;-6.19;78.70
77118;BME280;66072;50.238;19.228;2023-04-06T03:04:02;98820.26;;;-6.22;78.77
77118;BME280;66072;50.238;19.228;2023-04-06T03:06:30;98819.22;;;-6.25;78.64
77118;BME280;66072;50.238;19.228;2023-04-06T03:08:57;98819.65;;;-6.26;78.95
77118;BME280;66072;50.238;19.228;2023-04-06T03:11:25;98825.75;;;-6.29;78.92
77118;BME280;66072;50.238;19.228;2023-04-06T03:13:52;98825.69;;;-6.31;78.94
77118;BME280;66072;50.238;19.228;2023-04-06T03:16:20;98822.63;;;-6.34;78.95
77118;BME280;66072;50.238;19.228;2023-04-06T03:18:48;98824.27;;;-6.34;79.22
77118;BME280;66072;50.238;19.228;2023-04-06T03:21:16;98822.55;;;-6.37;79.30
77118;BME280;66072;50.238;19.228;2023-04-06T03:23:43;98827.95;;;-6.40;79.30
77118;BME280;66072;50.238;19.228;2023-04-06T03:26:11;98827.07;;;-6.42;79.39
77118;BME280;66072;50.238;19.228;2023-04-06T03:28:38;98825.07;;;-6.42;79.53
77118;BME280;66072;50.238;19.228;2023-04-06T03:31:06;98823.17;;;-6.44;79.52
77118;BME280;66072;50.238;19.228;2023-04-06T03:33:33;98821.05;;;-6.43;80.13
77118;BME280;66072;50.238;19.228;2023-04-06T03:36:01;98821.77;;;-6.41;80.16
77118;BME280;66072;50.238;19.228;2023-04-06T03:38:29;98823.74;;;-6.42;79.98
77118;BME280;66072;50.238;19.228;2023-04-06T03:40:56;98824.99;;;-6.45;79.87
77118;BME280;66072;50.238;19.228;2023-04-06T03:43:24;98825.90;;;-6.48;79.70
77118;BME280;66072;50.238;19.228;2023-04-06T03:45:51;98831.60;;;-6.53;79.64
77118;BME280;66072;50.238;19.228;2023-04-06T03:48:19;98826.99;;;-6.58;79.66
77118;BME280;66072;50.238;19.228;2023-04-06T03:50:47;98832.40;;;-6.61;79.68
77118;BME280;66072;50.238;19.228;2023-04-06T03:53:14;98835.50;;;-6.62;79.83
77118;BME280;66072;50.238;19.228;2023-04-06T03:55:42;98838.92;;;-6.65;79.67
77118;BME280;66072;50.238;19.228;2023-04-06T03:58:10;98837.75;;;-6.65;80.06
77118;BME280;66072;50.238;19.228;2023-04-06T04:00:37;98835.25;;;-6.65;80.30
77118;BME280;66072;50.238;19.228;2023-04-06T04:03:05;98831.95;;;-6.64;80.37
77118;BME280;66072;50.238;19.228;2023-04-06T04:05:33;98834.62;;;-6.64;80.41
77118;BME280;66072;50.238;19.228;2023-04-06T04:08:00;98835.48;;;-6.63;80.54
77118;BME280;66072;50.238;19.228;2023-04-06T04:10:28;98834.81;;;-6.63;80.51
77118;BME280;66072;50.238;19.228;2023-04-06T04:12:55;98834.12;;;-6.64;80.51
77118;BME280;66072;50.238;19.228;2023-04-06T04:15:23;98837.30;;;-6.63;80.97
77118;BME280;66072;50.238;19.228;2023-04-06T04:17:50;98839.65;;;-6.63;80.87
77118;BME280;66072;50.238;19.228;2023-04-06T04:20:18;98843.41;;;-6.64;80.55
77118;BME280;66072;50.238;19.228;2023-04-06T04:22:46;98843.75;;;-6.64;80.86
77118;BME280;66072;50.238;19.228;2023-04-06T04:25:13;98837.77;;;-6.64;80.73
77118;BME280;66072;50.238;19.228;2023-04-06T04:27:41;98837.50;;;-6.63;80.89
77118;BME280;66072;50.238;19.228;2023-04-06T04:30:09;98832.92;;;-6.60;80.90
77118;BME280;66072;50.238;19.228;2023-04-06T04:32:36;98830.88;;;-6.55;81.10
77118;BME280;66072;50.238;19.228;2023-04-06T04:35:04;98834.92;;;-6.47;81.40
77118;BME280;66072;50.238;19.228;2023-04-06T04:37:32;98833.13;;;-6.40;81.19
77118;BME280;66072;50.238;19.228;2023-04-06T04:40:00;98834.82;;;-6.32;81.18
77118;BME280;66072;50.238;19.228;2023-04-06T04:42:27;98835.88;;;-6.23;81.05
77118;BME280;66072;50.238;19.228;2023-04-06T04:44:55;98837.13;;;-6.14;81.22
77118;BME280;66072;50.238;19.228;2023-04-06T04:47:22;98834.88;;;-6.04;81.08
77118;BME280;66072;50.238;19.228;2023-04-06T04:49:50;98831.67;;;-5.91;81.33
77118;BME280;66072;50.238;19.228;2023-04-06T04:52:17;98837.48;;;-5.79;81.18
77118;BME280;66072;50.238;19.228;2023-04-06T04:54:45;98835.75;;;-5.68;80.90
77118;BME280;66072;50.238;19.228;2023-04-06T04:57:13;98833.55;;;-5.55;80.73
77118;BME280;66072;50.238;19.228;2023-04-06T04:59:40;98835.20;;;-5.41;80.64
77118;BME280;66072;50.238;19.228;2023-04-06T05:02:08;98837.20;;;-5.26;80.54
77118;BME280;66072;50.238;19.228;2023-04-06T05:04:36;98832.52;;;-5.11;80.45
77118;BME280;66072;50.238;19.228;2023-04-06T05:07:08;98831.05;;;-4.94;80.38
77118;BME280;66072;50.238;19.228;2023-04-06T05:09:36;98828.61;;;-4.75;79.95
77118;BME280;66072;50.238;19.228;2023-04-06T05:12:04;98828.51;;;-4.55;79.92
77118;BME280;66072;50.238;19.228;2023-04-06T05:14:31;98830.08;;;-4.34;79.66
77118;BME280;66072;50.238;19.228;2023-04-06T05:16:59;98830.61;;;-4.13;79.17
77118;BME280;66072;50.238;19.228;2023-04-06T05:19:27;98835.15;;;-3.93;78.80
77118;BME280;66072;50.238;19.228;2023-04-06T05:21:54;98835.77;;;-3.75;78.39
77118;BME280;66072;50.238;19.228;2023-04-06T05:24:22;98837.90;;;-3.57;78.24
77118;BME280;66072;50.238;19.228;2023-04-06T05:26:49;98839.50;;;-3.40;78.01
77118;BME280;66072;50.238;19.228;2023-04-06T05:29:18;98840.59;;;-3.24;77.39
77118;BME280;66072;50.238;19.228;2023-04-06T05:31:45;98839.99;;;-3.07;77.06
77118;BME280;66072;50.238;19.228;2023-04-06T05:34:13;98838.70;;;-2.90;76.58
77118;BME280;66072;50.238;19.228;2023-04-06T05:36:41;98834.05;;;-2.74;76.03
77118;BME280;66072;50.238;19.228;2023-04-06T05:39:09;98832.39;;;-2.59;75.51
77118;BME280;66072;50.238;19.228;2023-04-06T05:41:37;98836.75;;;-2.45;74.97
77118;BME280;66072;50.238;19.228;2023-04-06T05:44:04;98836.05;;;-2.32;74.65
77118;BME280;66072;50.238;19.228;2023-04-06T05:46:32;98833.68;;;-2.19;74.05
77118;BME280;66072;50.238;19.228;2023-04-06T05:49:00;98827.95;;;-2.06;73.64
77118;BME280;66072;50.238;19.228;2023-04-06T05:51:27;98825.02;;;-1.95;73.25
77118;BME280;66072;50.238;19.228;2023-04-06T05:53:55;98822.48;;;-1.81;73.05
77118;BME280;66072;50.238;19.228;2023-04-06T05:56:22;98824.27;;;-1.67;72.60
77118;BME280;66072;50.238;19.228;2023-04-06T05:58:50;98824.24;;;-1.49;72.39
77118;BME280;66072;50.238;19.228;2023-04-06T06:01:17;98825.02;;;-1.33;72.09
77118;BME280;66072;50.238;19.228;2023-04-06T06:03:45;98821.95;;;-1.15;71.74
77118;BME280;66072;50.238;19.228;2023-04-06T06:06:12;98822.05;;;-0.98;71.21
77118;BME280;66072;50.238;19.228;2023-04-06T06:08:40;98818.77;;;-0.82;70.96
77118;BME280;66072;50.238;19.228;2023-04-06T06:11:07;98818.68;;;-0.65;70.55
77118;BME280;66072;50.238;19.228;2023-04-06T06:13:35;98821.42;;;-0.48;69.99
77118;BME280;66072;50.238;19.228;2023-04-06T06:16:03;98823.33;;;-0.33;69.49
77118;BME280;66072;50.238;19.228;2023-04-06T06:18:31;98822.52;;;-0.20;68.99
77118;BME280;66072;50.238;19.228;2023-04-06T06:20:58;98819.02;;;-0.08;68.50
77118;BME280;66072;50.238;19.228;2023-04-06T06:23:26;98825.09;;;0.03;68.23
77118;BME280;66072;50.238;19.228;2023-04-06T06:25:53;98823.74;;;0.14;67.67
77118;BME280;66072;50.238;19.228;2023-04-06T06:28:21;98828.98;;;0.30;67.44
77118;BME280;66072;50.238;19.228;2023-04-06T06:30:49;98824.43;;;0.47;67.03
77118;BME280;66072;50.238;19.228;2023-04-06T06:33:16;98825.94;;;0.62;66.77
77118;BME280;66072;50.238;19.228;2023-04-06T06:35:44;98828.95;;;0.78;66.04
77118;BME280;66072;50.238;19.228;2023-04-06T06:38:12;98824.89;;;0.97;65.77
77118;BME280;66072;50.238;19.228;2023-04-06T06:40:40;98824.48;;;1.18;64.91
77118;BME280;66072;50.238;19.228;2023-04-06T06:43:08;98819.70;;;1.35;63.47
77118;BME280;66072;50.238;19.228;2023-04-06T06:45:35;98820.66;;;1.47;62.82
77118;BME280;66072;50.238;19.228;2023-04-06T06:48:03;98821.91;;;1.71;63.26
77118;BME280;66072;50.238;19.228;2023-04-06T06:50:31;98824.79;;;1.98;61.89
77118;BME280;66072;50.238;19.228;2023-04-06T06:52:58;98822.09;;;2.23;61.47
77118;BME280;66072;50.238;19.228;2023-04-06T06:55:26;98817.83;;;2.50;59.92
77118;BME280;66072;50.238;19.228;2023-04-06T06:57:53;98821.64;;;2.77;59.56
77118;BME280;66072;50.238;19.228;2023-04-06T07:00:21;98816.70;;;3.12;58.57
77118;BME280;66072;50.238;19.228;2023-04-06T07:02:49;98820.39;;;3.45;55.47
77118;BME280;66072;50.238;19.228;2023-04-06T07:05:17;98822.66;;;3.55;53.57
77118;BME280;66072;50.238;19.228;2023-04-06T07:07:55;98823.33;;;3.68;53.45
77118;BME280;66072;50.238;19.228;2023-04-06T07:10:23;98825.24;;;3.89;53.79
77118;BME280;66072;50.238;19.228;2023-04-06T07:12:50;98821.36;;;4.12;53.58
77118;BME280;66072;50.238;19.228;2023-04-06T07:15:18;98821.80;;;4.38;53.41
77118;BME280;66072;50.238;19.228;2023-04-06T07:17:46;98825.30;;;4.63;52.42
77118;BME280;66072;50.238;19.228;2023-04-06T07:20:13;98823.23;;;4.75;50.37
77118;BME280;66072;50.238;19.228;2023-04-06T07:22:43;98827.95;;;4.86;49.23
77118;BME280;66072;50.238;19.228;2023-04-06T07:25:11;98829.02;;;4.83;47.67
77118;BME280;66072;50.238;19.228;2023-04-06T07:27:38;98828.16;;;4.74;47.94
77118;BME280;66072;50.238;19.228;2023-04-06T07:30:08;98825.98;;;4.72;48.63
77118;BME280;66072;50.238;19.228;2023-04-06T07:32:36;98825.09;;;4.65;46.80
77118;BME280;66072;50.238;19.228;2023-04-06T07:35:03;98821.44;;;4.51;47.47
77118;BME280;66072;50.238;19.228;2023-04-06T07:37:31;98818.70;;;4.52;47.41
77118;BME280;66072;50.238;19.228;2023-04-06T07:39:59;98818.34;;;4.53;47.05
77118;BME280;66072;50.238;19.228;2023-04-06T07:42:26;98822.34;;;4.68;47.10
77118;BME280;66072;50.238;19.228;2023-04-06T07:44:54;98822.14;;;4.79;46.52
77118;BME280;66072;50.238;19.228;2023-04-06T07:47:23;98828.06;;;4.89;45.81
77118;BME280;66072;50.238;19.228;2023-04-06T07:49:50;98821.23;;;4.93;45.27
77118;BME280;66072;50.238;19.228;2023-04-06T07:52:18;98817.87;;;5.09;45.20
77118;BME280;66072;50.238;19.228;2023-04-06T07:54:45;98820.38;;;5.21;44.98
77118;BME280;66072;50.238;19.228;2023-04-06T07:57:13;98821.54;;;5.21;44.12
77118;BME280;66072;50.238;19.228;2023-04-06T07:59:41;98822.95;;;5.27;44.35
77118;BME280;66072;50.238;19.228;2023-04-06T08:02:08;98825.83;;;5.27;43.84
77118;BME280;66072;50.238;19.228;2023-04-06T08:04:36;98825.95;;;5.30;44.08
77118;BME280;66072;50.238;19.228;2023-04-06T08:07:04;98825.00;;;5.35;43.69
77118;BME280;66072;50.238;19.228;2023-04-06T08:09:31;98820.59;;;5.35;44.37
77118;BME280;66072;50.238;19.228;2023-04-06T08:11:59;98823.20;;;5.40;44.23
77118;BME280;66072;50.238;19.228;2023-04-06T08:14:27;98823.31;;;5.43;44.06
77118;BME280;66072;50.238;19.228;2023-04-06T08:16:54;98821.00;;;5.40;43.67
77118;BME280;66072;50.238;19.228;2023-04-06T08:19:22;98821.55;;;5.29;43.15
77118;BME280;66072;50.238;19.228;2023-04-06T08:21:50;98821.91;;;5.10;43.07
77118;BME280;66072;50.238;19.228;2023-04-06T08:24:17;98822.59;;;4.92;42.84
77118;BME280;66072;50.238;19.228;2023-04-06T08:26:45;98820.63;;;4.78;43.03
77118;BME280;66072;50.238;19.228;2023-04-06T08:29:12;98823.61;;;4.72;43.64
77118;BME280;66072;50.238;19.228;2023-04-06T08:31:40;98821.38;;;4.74;43.25
77118;BME280;66072;50.238;19.228;2023-04-06T08:34:08;98821.56;;;4.64;42.98
77118;BME280;66072;50.238;19.228;2023-04-06T08:36:39;98819.19;;;4.54;43.42
77118;BME280;66072;50.238;19.228;2023-04-06T08:39:07;98817.06;;;4.49;43.80
77118;BME280;66072;50.238;19.228;2023-04-06T08:41:34;98813.61;;;4.63;44.44
77118;BME280;66072;50.238;19.228;2023-04-06T08:44:02;98814.27;;;4.83;44.35
77118;BME280;66072;50.238;19.228;2023-04-06T08:46:30;98812.80;;;5.08;44.07
77118;BME280;66072;50.238;19.228;2023-04-06T08:49:02;98811.06;;;5.28;44.08
77118;BME280;66072;50.238;19.228;2023-04-06T08:51:30;98810.23;;;5.27;42.68
77118;BME280;66072;50.238;19.228;2023-04-06T08:53:59;98805.53;;;5.16;42.71
77118;BME280;66072;50.238;19.228;2023-04-06T08:56:27;98797.46;;;5.12;43.44
77118;BME280;66072;50.238;19.228;2023-04-06T08:58:56;98802.45;;;5.18;43.29
77118;BME280;66072;50.238;19.228;2023-04-06T09:01:27;98801.85;;;5.22;43.41
77118;BME280;66072;50.238;19.228;2023-04-06T09:03:57;98796.41;;;5.31;43.17
77118;BME280;66072;50.238;19.228;2023-04-06T09:06:26;98797.45;;;5.38;43.03
77118;BME280;66072;50.238;19.228;2023-04-06T09:08:54;98794.32;;;5.43;43.02
77118;BME280;66072;50.238;19.228;2023-04-06T09:11:22;98790.13;;;5.57;43.16
77118;BME280;66072;50.238;19.228;2023-04-06T09:13:55;98784.92;;;5.78;42.72
77118;BME280;66072;50.238;19.228;2023-04-06T09:16:23;98791.40;;;5.76;42.00
77118;BME280;66072;50.238;19.228;2023-04-06T09:18:51;98785.25;;;5.78;42.67
77118;BME280;66072;50.238;19.228;2023-04-06T09:21:19;98784.58;;;6.02;42.16
77118;BME280;66072;50.238;19.228;2023-04-06T09:24:01;98779.41;;;6.05;41.55
77118;BME280;66072;50.238;19.228;2023-04-06T09:26:29;98780.34;;;6.24;41.62
77118;BME280;66072;50.238;19.228;2023-04-06T09:28:58;98784.61;;;6.50;41.18
77118;BME280;66072;50.238;19.228;2023-04-06T09:31:30;98779.50;;;6.64;40.51
77118;BME280;66072;50.238;19.228;2023-04-06T09:33:59;98778.83;;;6.77;40.30
77118;BME280;66072;50.238;19.228;2023-04-06T09:36:35;98770.38;;;7.01;40.56
77118;BME280;66072;50.238;19.228;2023-04-06T09:39:03;98777.13;;;7.21;40.40
77118;BME280;66072;50.238;19.228;2023-04-06T09:41:35;98778.55;;;7.19;39.18
77118;BME280;66072;50.238;19.228;2023-04-06T09:44:07;98770.79;;;7.23;38.83
77118;BME280;66072;50.238;19.228;2023-04-06T09:46:38;98769.27;;;7.69;39.04
77118;BME280;66072;50.238;19.228;2023-04-06T09:49:22;98768.89;;;7.77;38.07
77118;BME280;66072;50.238;19.228;2023-04-06T09:51:59;98765.84;;;7.87;38.55
77118;BME280;66072;50.238;19.228;2023-04-06T09:54:31;98770.98;;;7.91;37.75
77118;BME280;66072;50.238;19.228;2023-04-06T09:57:24;98766.95;;;7.73;37.57
77118;BME280;66072;50.238;19.228;2023-04-06T10:00:08;98764.80;;;7.77;37.24
77118;BME280;66072;50.238;19.228;2023-04-06T10:02:58;98770.67;;;7.79;36.83
77118;BME280;66072;50.238;19.228;2023-04-06T10:08:10;98756.70;;;8.75;36.52
77118;BME280;66072;50.238;19.228;2023-04-06T10:10:38;98761.35;;;8.59;35.31
77118;BME280;66072;50.238;19.228;2023-04-06T10:13:05;98759.22;;;8.41;35.79
77118;BME280;66072;50.238;19.228;2023-04-06T10:15:34;98757.14;;;8.67;35.37
77118;BME280;66072;50.238;19.228;2023-04-06T10:18:03;98748.36;;;8.94;35.13
77118;BME280;66072;50.238;19.228;2023-04-06T10:20:47;98745.02;;;9.16;35.31
77118;BME280;66072;50.238;19.228;2023-04-06T10:25:54;98743.53;;;8.91;35.44
77118;BME280;66072;50.238;19.228;2023-04-06T10:28:23;98746.44;;;8.91;35.25
77118;BME280;66072;50.238;19.228;2023-04-06T10:30:57;98745.19;;;8.58;34.25
77118;BME280;66072;50.238;19.228;2023-04-06T10:33:25;98740.99;;;8.13;35.49
77118;BME280;66072;50.238;19.228;2023-04-06T10:35:53;98740.45;;;7.87;35.68
77118;BME280;66072;50.238;19.228;2023-04-06T10:38:21;98731.84;;;7.40;36.36
77118;BME280;66072;50.238;19.228;2023-04-06T10:41:07;98730.61;;;7.18;37.55
77118;BME280;66072;50.238;19.228;2023-04-06T10:43:36;98725.86;;;7.11;37.63
77118;BME280;66072;50.238;19.228;2023-04-06T10:46:06;98723.33;;;7.05;37.66
77118;BME280;66072;50.238;19.228;2023-04-06T10:48:39;98724.52;;;7.17;38.15
77118;BME280;66072;50.238;19.228;2023-04-06T10:51:09;98722.67;;;7.33;37.15
77118;BME280;66072;50.238;19.228;2023-04-06T10:53:37;98721.58;;;7.48;37.58
77118;BME280;66072;50.238;19.228;2023-04-06T10:56:09;98716.08;;;7.55;37.41
77118;BME280;66072;50.238;19.228;2023-04-06T10:58:37;98717.16;;;7.64;37.37
77118;BME280;66072;50.238;19.228;2023-04-06T11:01:05;98711.32;;;7.72;37.15
77118;BME280;66072;50.238;19.228;2023-04-06T11:03:45;98713.04;;;7.76;36.93
77118;BME280;66072;50.238;19.228;2023-04-06T11:06:29;98711.95;;;7.84;36.86
77118;BME280;66072;50.238;19.228;2023-04-06T11:08:58;98711.38;;;7.92;36.65
77118;BME280;66072;50.238;19.228;2023-04-06T11:11:26;98715.50;;;7.84;36.53
77118;BME280;66072;50.238;19.228;2023-04-06T11:13:56;98713.85;;;7.67;36.78
77118;BME280;66072;50.238;19.228;2023-04-06T11:16:26;98711.71;;;7.70;36.92
77118;BME280;66072;50.238;19.228;2023-04-06T11:18:55;98709.45;;;7.71;37.13
77118;BME280;66072;50.238;19.228;2023-04-06T11:21:35;98708.60;;;7.76;37.02
77118;BME280;66072;50.238;19.228;2023-04-06T11:29:08;98705.81;;;8.00;36.97
77118;BME280;66072;50.238;19.228;2023-04-06T11:31:40;98703.17;;;7.97;36.52
77118;BME280;66072;50.238;19.228;2023-04-06T11:34:12;98700.52;;;7.85;36.89
77118;BME280;66072;50.238;19.228;2023-04-06T11:36:41;98701.29;;;7.59;37.02
77118;BME280;66072;50.238;19.228;2023-04-06T11:39:09;98702.00;;;7.01;38.33
77118;BME280;66072;50.238;19.228;2023-04-06T11:41:37;98697.77;;;6.57;38.89
77118;BME280;66072;50.238;19.228;2023-04-06T11:44:05;98690.91;;;6.40;39.41
77118;BME280;66072;50.238;19.228;2023-04-06T11:46:33;98693.56;;;6.23;39.94
77118;BME280;66072;50.238;19.228;2023-04-06T11:49:01;98698.33;;;6.02;40.61
77118;BME280;66072;50.238;19.228;2023-04-06T11:51:29;98688.91;;;5.90;40.97
77118;BME280;66072;50.238;19.228;2023-04-06T11:53:57;98691.15;;;5.81;41.25
77118;BME280;66072;50.238;19.228;2023-04-06T11:56:28;98688.32;;;5.79;41.65
77118;BME280;66072;50.238;19.228;2023-04-06T11:58:57;98691.83;;;5.89;41.46
77118;BME280;66072;50.238;19.228;2023-04-06T12:01:25;98690.06;;;5.84;41.92
77118;BME280;66072;50.238;19.228;2023-04-06T12:03:53;98690.38;;;5.64;42.73
77118;BME280;66072;50.238;19.228;2023-04-06T12:06:21;98688.92;;;5.45;42.85
77118;BME280;66072;50.238;19.228;2023-04-06T12:08:49;98684.90;;;5.43;43.52
77118;BME280;66072;50.238;19.228;2023-04-06T12:11:16;98680.98;;;5.28;44.52
77118;BME280;66072;50.238;19.228;2023-04-06T12:13:44;98683.80;;;4.99;44.71
77118;BME280;66072;50.238;19.228;2023-04-06T12:16:11;98686.16;;;4.83;44.99
77118;BME280;66072;50.238;19.228;2023-04-06T12:18:39;98682.42;;;4.75;45.37
77118;BME280;66072;50.238;19.228;2023-04-06T12:21:07;98681.63;;;4.72;45.83
77118;BME280;66072;50.238;19.228;2023-04-06T12:23:35;98681.08;;;4.66;46.38
77118;BME280;66072;50.238;19.228;2023-04-06T12:26:03;98679.65;;;4.60;46.46
77118;BME280;66072;50.238;19.228;2023-04-06T12:28:30;98678.27;;;4.63;47.09
77118;BME280;66072;50.238;19.228;2023-04-06T12:30:58;98678.16;;;4.59;47.64
77118;BME280;66072;50.238;19.228;2023-04-06T12:33:25;98673.56;;;4.60;48.72
77118;BME280;66072;50.238;19.228;2023-04-06T12:35:53;98670.02;;;4.58;48.92
77118;BME280;66072;50.238;19.228;2023-04-06T12:38:21;98671.75;;;4.57;49.88
77118;BME280;66072;50.238;19.228;2023-04-06T12:40:48;98666.98;;;4.58;49.56
77118;BME280;66072;50.238;19.228;2023-04-06T12:43:16;98665.63;;;4.59;49.99
77118;BME280;66072;50.238;19.228;2023-04-06T12:45:43;98670.05;;;4.68;50.04
77118;BME280;66072;50.238;19.228;2023-04-06T12:48:11;98665.44;;;4.60;51.73
77118;BME280;66072;50.238;19.228;2023-04-06T12:50:38;98664.53;;;4.45;52.35
77118;BME280;66072;50.238;19.228;2023-04-06T12:53:06;98663.30;;;4.28;52.85
77118;BME280;66072;50.238;19.228;2023-04-06T12:55:33;98661.96;;;4.18;53.62
77118;BME280;66072;50.238;19.228;2023-04-06T12:58:01;98665.64;;;4.21;54.12
77118;BME280;66072;50.238;19.228;2023-04-06T13:00:29;98669.00;;;4.23;55.30
77118;BME280;66072;50.238;19.228;2023-04-06T13:02:56;98666.08;;;4.25;56.44
77118;BME280;66072;50.238;19.228;2023-04-06T13:05:24;98664.64;;;4.29;56.79
77118;BME280;66072;50.238;19.228;2023-04-06T13:07:54;98664.16;;;4.29;57.41
77118;BME280;66072;50.238;19.228;2023-04-06T13:10:22;98666.02;;;4.19;57.88
77118;BME280;66072;50.238;19.228;2023-04-06T13:12:50;98668.58;;;3.98;58.81